Chagrin Falls, OH (44022)

9:41 PM EDT on July 29, 2015 (GMT -0400)
Bell Street Pepper Patch | | Change Station
CLOSE
Current Station
Personal Weather Station
Location: Chagrin Falls, OH
Elevation: 1010 ft
Nearby Weather Stations

Elev 1010 ft 41.43 °N, 81.38 °W | Updated 26 seconds ago

Rain
Rain
79.5 °F
Feels Like 83 °F
N
0.0
Wind Variable Wind from North
Gusts 4.5 mph

Today
High -- | Low -- °F
--% Chance of Precip.
Yesterday
High -- | Low -- °F
Precip. -- in
6:17 AM 8:46 PM
Waxing Gibbous, 97% visible
Pressure 29.93 in
Visibility 7.0 miles
Clouds Scattered Clouds 6000 ft
Mostly Cloudy 10000 ft
Overcast 15000 ft
Heat Index 83 °F
Dew Point 73 °F
Humidity 81%
Rainfall 0.00 in
Snow Depth Not available.
UV 0 out of 12
Pollen 6.80 out of 12
Air Quality Not available.
Flu Activity Not available.
METAR KCGF 300045Z 28010KT 7SM -RA SCT060 BKN100 OVC150 26/24 A2993

More Conditions Fewer Conditions

Pressure 29.93 in
Visibility 7.0 miles
Clouds Scattered Clouds 6000 ft
Mostly Cloudy 10000 ft
Overcast 15000 ft
Heat Index 83 °F
Dew Point 73 °F
Humidity 81%
Rainfall 0.00 in
Snow Depth Not available.
UV 0 out of 12
Pollen 6.80 out of 12
Air Quality Not available.
Flu Activity Not available.
METAR KCGF 300045Z 28010KT 7SM -RA SCT060 BKN100 OVC150 26/24 A2993

More Conditions Fewer Conditions

10-Day Weather Forecast

×

Almanac

Astronomy

Jul. 29, 2015 Rise Set
Actual Time
Civil Twilight
Nautical Twilight
Astronomical Twilight
Moon
Length of Visible Light
Length of Day
Tomorrow will be .
, % of the Moon is Illuminated

Today's Extremes

State Highs State Lows

Community

WunderPhotos

Upload Photos

1,842,247 photos uploaded!

WunderBlogs® & News

Nearby

Air Quality

  Air Quality AQ Index Pollutant
Not available.

Snow Depth

Station Depth Elevation

Earthquake Activity

City Distance Mag. Time & Date
Minimum magnitude displayed is 2.5.

Coastal Water Temperatures

Place Temperature

Stations

Nearby Weather Stations

Station Location Temp. Windchill Dew Point Humidity Wind Precip. Elev Updated Type